Port Wash, New York
Current Conditions -  °F | °C
As of 5:51 AM on Friday 24 Oct 2014 (Local Time) from KLGA Reporting Station
Overcast Overcast  
Wind Chill: 51°   Ceiling: 25000
Heat Index: 51°   Visibility: 10mi
Dew Point: 43°   Wind: 14mph
Humidity: 74%   Direction: 310°NW
Pressure: 29.79"   Gusts: NA
Location:  40.8387°N, 73.6912°W
Report Text: KLGA 240951Z 31012KT 10SM SCT045 SCT100 OVC250 11/06 A2979 RMK AO2 SLP086 T01060061
Loading
Personal Weather Stations






























Interactive Weather Map
Tropical Storm Tracking
New forecast layout! Learn more

10-Day Weather Forecast

Advertisements
Track Severe Weather on mobile